createdAt,value
2022-10-09T00:03:25.857Z,11.3
2022-10-09T00:08:25.721Z,11.2
2022-10-09T00:13:25.913Z,11.1
2022-10-09T00:18:25.671Z,11.0
2022-10-09T00:23:25.843Z,11.0
2022-10-09T00:28:25.715Z,11.0
2022-10-09T00:33:25.594Z,10.9
2022-10-09T00:38:25.990Z,10.9
2022-10-09T00:43:25.798Z,10.8
2022-10-09T00:48:26.138Z,10.8
2022-10-09T00:53:25.602Z,10.7
2022-10-09T00:58:25.678Z,10.6
2022-10-09T01:03:25.713Z,10.6
2022-10-09T01:08:25.517Z,10.5
2022-10-09T01:13:25.737Z,10.4
2022-10-09T01:18:25.576Z,10.3
2022-10-09T01:23:27.152Z,10.2
2022-10-09T01:28:25.794Z,10.1
2022-10-09T01:33:25.882Z,10.0
2022-10-09T01:38:25.659Z,9.9
2022-10-09T01:43:25.548Z,9.8
2022-10-09T01:48:25.558Z,9.7
2022-10-09T01:53:25.494Z,9.6
2022-10-09T01:58:25.766Z,9.5
2022-10-09T02:03:25.831Z,9.4
2022-10-09T02:08:25.455Z,9.3
2022-10-09T02:13:25.476Z,9.3
2022-10-09T02:18:25.572Z,9.2
2022-10-09T02:23:25.468Z,9.1
2022-10-09T02:28:25.798Z,9.1
2022-10-09T02:33:25.498Z,9.0
2022-10-09T02:38:25.726Z,9.0
2022-10-09T02:43:25.797Z,8.9
2022-10-09T02:48:25.463Z,8.7
2022-10-09T02:53:25.503Z,8.6
2022-10-09T02:58:26.761Z,8.4
2022-10-09T03:03:25.488Z,8.3
2022-10-09T03:08:25.366Z,8.1
2022-10-09T03:13:25.728Z,7.9
2022-10-09T03:18:25.435Z,7.8
2022-10-09T03:23:25.487Z,7.7
2022-10-09T03:28:25.660Z,7.7
2022-10-09T03:33:26.420Z,7.7
2022-10-09T03:38:25.320Z,7.7
2022-10-09T03:43:25.538Z,7.6
2022-10-09T03:48:25.330Z,7.6
2022-10-09T03:53:25.338Z,7.6
2022-10-09T03:58:25.859Z,7.5
2022-10-09T04:03:25.218Z,7.4
2022-10-09T04:08:25.280Z,7.3
2022-10-09T04:13:25.356Z,7.3
2022-10-09T04:18:25.526Z,7.2
2022-10-09T04:23:25.425Z,7.1
2022-10-09T04:28:25.551Z,7.0
2022-10-09T04:33:25.211Z,6.9
2022-10-09T04:38:25.247Z,6.9
2022-10-09T04:43:25.325Z,6.8
2022-10-09T04:48:25.388Z,6.8
2022-10-09T04:53:25.337Z,6.8
2022-10-09T04:58:25.672Z,6.7
2022-10-09T05:03:25.537Z,6.8
2022-10-09T05:08:25.142Z,6.8
2022-10-09T05:13:25.287Z,6.8
2022-10-09T05:18:25.254Z,6.8
2022-10-09T05:23:25.099Z,6.8
2022-10-09T05:28:25.392Z,6.9
2022-10-09T05:33:26.289Z,6.9
2022-10-09T05:38:25.300Z,7.0
2022-10-09T05:43:25.080Z,7.1
2022-10-09T05:48:25.149Z,7.1
2022-10-09T05:53:25.280Z,7.2
2022-10-09T05:58:25.118Z,7.3
2022-10-09T06:03:25.365Z,7.4
2022-10-09T06:08:25.223Z,7.5
2022-10-09T06:13:25.197Z,7.6
2022-10-09T06:18:25.046Z,7.8
2022-10-09T06:23:25.063Z,7.9
2022-10-09T06:28:25.083Z,8.0
2022-10-09T06:33:25.153Z,8.2
2022-10-09T06:38:25.080Z,8.2
2022-10-09T06:43:25.080Z,8.3
2022-10-09T06:48:25.093Z,8.3
2022-10-09T06:53:25.367Z,8.5
2022-10-09T06:58:25.021Z,8.7
2022-10-09T07:03:24.972Z,8.9
2022-10-09T07:08:25.311Z,8.9
2022-10-09T07:13:25.593Z,9.0
2022-10-09T07:18:25.145Z,9.0
2022-10-09T07:23:25.580Z,9.1
2022-10-09T07:28:25.934Z,9.2
2022-10-09T07:33:25.250Z,9.2
2022-10-09T07:38:24.883Z,9.3
2022-10-09T07:43:25.320Z,9.3
2022-10-09T07:48:24.989Z,9.4
2022-10-09T07:53:24.910Z,9.4
2022-10-09T07:58:24.797Z,9.6
2022-10-09T08:03:24.846Z,9.9
2022-10-09T08:08:25.017Z,10.1
2022-10-09T08:13:24.877Z,10.1
2022-10-09T08:18:24.790Z,10.1
2022-10-09T08:23:24.956Z,10.3
2022-10-09T08:28:25.116Z,10.4
2022-10-09T08:33:24.736Z,10.6
2022-10-09T08:38:45.995Z,10.8
2022-10-09T08:43:25.822Z,10.8
2022-10-09T08:48:24.823Z,10.7
2022-10-09T08:53:24.823Z,10.9
2022-10-09T08:58:24.827Z,11.0
2022-10-09T09:03:24.724Z,11.2
2022-10-09T09:08:25.111Z,11.4
2022-10-09T09:13:24.664Z,11.4
2022-10-09T09:18:24.839Z,11.6
2022-10-09T09:23:24.976Z,12.0
2022-10-09T09:28:24.802Z,12.1
2022-10-09T09:33:24.742Z,12.3
2022-10-09T09:38:24.883Z,12.5
2022-10-09T09:43:24.735Z,12.6
2022-10-09T09:48:24.948Z,12.7
2022-10-09T09:53:24.881Z,12.9
2022-10-09T09:58:25.021Z,12.9
2022-10-09T10:03:24.649Z,12.8
2022-10-09T10:08:24.613Z,12.9
2022-10-09T10:13:24.620Z,13.0
2022-10-09T10:18:24.618Z,12.9
2022-10-09T10:23:24.727Z,13.1
2022-10-09T10:28:24.745Z,13.4
2022-10-09T10:33:24.738Z,13.4
2022-10-09T10:38:24.977Z,13.4
2022-10-09T10:43:24.687Z,13.4
2022-10-09T10:48:24.525Z,13.6
2022-10-09T10:53:24.642Z,13.9
2022-10-09T10:58:24.626Z,13.9
2022-10-09T11:03:24.569Z,13.8
2022-10-09T11:08:24.544Z,13.9
2022-10-09T11:13:24.590Z,13.9
2022-10-09T11:18:24.721Z,13.9
2022-10-09T11:23:24.498Z,13.9
2022-10-09T11:28:24.630Z,13.7
2022-10-09T11:33:24.636Z,13.6
2022-10-09T11:38:24.618Z,13.7
2022-10-09T11:43:24.752Z,13.9
2022-10-09T11:48:24.478Z,14.1
2022-10-09T11:53:24.635Z,14.3
2022-10-09T11:58:24.594Z,14.1
2022-10-09T12:03:24.542Z,13.9
2022-10-09T12:08:24.570Z,13.8
2022-10-09T12:13:24.623Z,13.7
2022-10-09T12:18:24.499Z,13.8
2022-10-09T12:23:27.110Z,13.9
2022-10-09T12:28:24.672Z,14.1
2022-10-09T12:33:24.475Z,14.2
2022-10-09T12:38:24.557Z,14.2
2022-10-09T12:43:24.621Z,14.3
2022-10-09T12:48:24.405Z,14.2
2022-10-09T12:53:24.450Z,13.9
2022-10-09T12:58:24.670Z,13.7
2022-10-09T13:03:24.304Z,13.5
2022-10-09T13:08:24.399Z,13.3
2022-10-09T13:13:24.596Z,13.2
2022-10-09T13:18:24.426Z,13.1
2022-10-09T13:23:24.427Z,12.9
2022-10-09T13:28:24.749Z,12.8
2022-10-09T13:33:25.559Z,12.8
2022-10-09T13:38:24.477Z,12.7
2022-10-09T13:43:24.436Z,12.6
2022-10-09T13:48:24.512Z,12.5
2022-10-09T13:53:24.628Z,12.4
2022-10-09T13:58:24.331Z,12.4
2022-10-09T14:03:24.717Z,12.6
2022-10-09T14:08:24.962Z,12.7
2022-10-09T14:13:24.465Z,12.7
2022-10-09T14:18:24.382Z,12.7
2022-10-09T14:23:24.610Z,12.7
2022-10-09T14:28:24.585Z,12.7
2022-10-09T14:33:24.409Z,12.6
2022-10-09T14:38:24.765Z,12.6
2022-10-09T14:43:24.239Z,12.5
2022-10-09T14:48:24.470Z,12.5
2022-10-09T14:53:24.753Z,12.5
2022-10-09T14:58:24.284Z,12.5
2022-10-09T15:03:24.567Z,12.4
2022-10-09T15:08:24.485Z,12.2
2022-10-09T15:13:24.332Z,12.1
2022-10-09T15:18:24.279Z,12.0
2022-10-09T15:23:24.559Z,11.9
2022-10-09T15:28:24.589Z,11.9
2022-10-09T15:33:25.452Z,11.8
2022-10-09T15:38:24.483Z,11.7
2022-10-09T15:43:24.863Z,11.8
2022-10-09T15:48:24.327Z,11.6
2022-10-09T15:53:24.406Z,11.4
2022-10-09T15:58:24.382Z,11.2
2022-10-09T16:03:24.365Z,11.0
2022-10-09T16:08:24.465Z,10.8
2022-10-09T16:13:24.205Z,10.5
2022-10-09T16:18:24.555Z,10.4
2022-10-09T16:23:24.616Z,10.2
2022-10-09T16:28:24.317Z,10.1
2022-10-09T16:33:24.266Z,10.0
2022-10-09T16:38:24.314Z,10.0
2022-10-09T16:43:24.859Z,9.9
2022-10-09T16:48:25.112Z,9.8
2022-10-09T16:53:24.125Z,9.5
2022-10-09T16:58:24.078Z,9.4
2022-10-09T17:03:24.230Z,9.2
2022-10-09T17:08:24.253Z,9.1
2022-10-09T17:13:24.212Z,8.9
2022-10-09T17:18:23.990Z,8.7
2022-10-09T17:23:24.316Z,8.5
2022-10-09T17:28:24.261Z,8.4
2022-10-09T17:33:24.173Z,8.3
2022-10-09T17:38:24.231Z,8.1
2022-10-09T17:43:24.182Z,8.0
2022-10-09T17:48:23.977Z,8.0
2022-10-09T17:53:24.322Z,7.9
2022-10-09T17:58:24.199Z,7.9
2022-10-09T18:03:24.502Z,7.9
2022-10-09T18:08:24.401Z,7.8
2022-10-09T18:13:24.188Z,7.8
2022-10-09T18:18:24.640Z,7.8
2022-10-09T18:23:24.092Z,7.8
2022-10-09T18:28:24.101Z,7.8
2022-10-09T18:33:23.832Z,7.7
2022-10-09T18:38:24.174Z,7.6
2022-10-09T18:43:24.379Z,7.5
2022-10-09T18:48:23.799Z,7.4
2022-10-09T18:53:24.016Z,7.3
2022-10-09T18:58:23.922Z,7.3
2022-10-09T19:03:23.811Z,7.2
2022-10-09T19:08:23.723Z,7.1
2022-10-09T19:13:23.827Z,7.0
2022-10-09T19:18:23.755Z,6.9
2022-10-09T19:23:23.886Z,6.8
2022-10-09T19:53:24.253Z,12.4
2022-10-09T19:58:25.886Z,6.8
2022-10-09T20:03:23.885Z,6.7
2022-10-09T20:08:24.017Z,6.7
2022-10-09T20:13:24.335Z,6.7
2022-10-09T20:18:23.792Z,6.6
2022-10-09T20:23:24.524Z,6.5
2022-10-09T20:28:23.661Z,6.4
2022-10-09T20:33:23.649Z,6.2
2022-10-09T20:38:25.737Z,6.1
2022-10-09T20:43:23.765Z,6.0
2022-10-09T20:48:23.540Z,5.9
2022-10-09T20:53:23.559Z,5.9
2022-10-09T20:58:23.559Z,5.9
2022-10-09T21:03:23.654Z,5.8
2022-10-09T21:08:23.487Z,5.8
2022-10-09T21:13:24.346Z,5.8
2022-10-09T21:18:23.508Z,5.8
2022-10-09T21:23:23.608Z,5.8
2022-10-09T21:28:23.549Z,5.8
2022-10-09T21:33:23.461Z,5.7
2022-10-09T21:38:23.496Z,5.6
2022-10-09T21:43:23.580Z,5.4
2022-10-09T21:48:23.610Z,5.3
2022-10-09T21:53:23.473Z,5.2
2022-10-09T21:58:23.472Z,5.2
2022-10-09T22:03:23.524Z,5.0
2022-10-09T22:08:23.436Z,5.0
2022-10-09T22:13:23.380Z,4.9
2022-10-09T22:18:23.592Z,4.8
2022-10-09T22:23:23.398Z,4.8
2022-10-09T22:28:23.376Z,4.9
2022-10-09T22:33:23.565Z,4.9
2022-10-09T22:38:23.399Z,5.0
2022-10-09T22:43:23.401Z,5.1
2022-10-09T22:48:23.558Z,5.2
2022-10-09T22:53:23.319Z,5.3
2022-10-09T22:58:23.560Z,5.4
2022-10-09T23:03:23.664Z,5.5
2022-10-09T23:08:23.308Z,5.6
2022-10-09T23:13:23.331Z,5.7
2022-10-09T23:18:23.429Z,5.7
2022-10-09T23:23:23.259Z,5.8
2022-10-09T23:28:23.317Z,5.9
2022-10-09T23:33:23.436Z,6.0
2022-10-09T23:38:23.350Z,6.1
2022-10-09T23:43:23.251Z,6.1
2022-10-09T23:48:23.402Z,6.1
2022-10-09T23:53:23.267Z,6.1
2022-10-09T23:58:23.274Z,6.1
